Time;durP1;ratioP1;P1;durP2;ratioP2;P2;SDS_P1;SDS_P2;PMS_P1;PMS_P2;Temp;Humidity;BMP_temperature;BMP_pressure;BME280_temperature;BME280_humidity;BME280_pressure;Samples;Min_cycle;Max_cycle;Signal;HPM_P1;HPM_P2
2022/01/21 00:00:32;;;;;;;49.28;5.28;;;;;;;0.35;100.00;103057.13;5040312;28;20449;-78
2022/01/21 00:02:57;;;;;;;31.95;4.57;;;;;;;0.36;100.00;103045.47;5025677;28;20051;-78
2022/01/21 00:05:23;;;;;;;56.50;5.07;;;;;;;0.20;100.00;103030.22;5027476;28;20029;-79
2022/01/21 00:07:49;;;;;;;71.13;5.80;;;;;;;0.42;100.00;103059.84;5021795;28;20042;-78
2022/01/21 00:10:15;;;;;;;64.60;5.10;;;;;;;0.40;100.00;103035.56;5042390;28;20033;-78
2022/01/21 00:12:42;;;;;;;41.78;4.30;;;;;;;0.51;100.00;103047.25;5023677;28;20426;-79
2022/01/21 00:15:10;;;;;;;57.08;5.32;;;;;;;0.50;100.00;103044.53;5042595;28;20044;-79
2022/01/21 00:17:37;;;;;;;51.78;5.07;;;;;;;0.63;100.00;103062.50;5021866;28;20029;-80
2022/01/21 00:31:01;;;;;;;42.70;4.50;;;;;;;0.60;100.00;103050.81;5040945;28;20088;-79
2022/01/21 00:33:27;;;;;;;29.67;4.88;;;;;;;0.67;100.00;103058.91;5038172;28;20053;-79
2022/01/21 00:35:52;;;;;;;34.88;4.00;;;;;;;0.75;100.00;103055.28;5042606;28;20132;-79
2022/01/21 00:38:17;;;;;;;50.28;4.68;;;;;;;0.79;100.00;103059.75;5025112;28;20042;-80
2022/01/21 00:40:43;;;;;;;43.22;3.80;;;;;;;0.84;100.00;103061.53;5047663;28;20185;-80
2022/01/21 00:45:34;;;;;;;34.92;3.47;;;;;;;0.85;100.00;103057.03;5052894;28;20248;-80
2022/01/21 00:48:00;;;;;;;45.50;4.25;;;;;;;0.83;100.00;103054.34;5017784;28;20026;-80
2022/01/21 00:50:25;;;;;;;51.30;4.32;;;;;;;0.78;100.00;103056.16;5045273;28;20428;-80
2022/01/21 00:52:51;;;;;;;39.72;4.00;;;;;;;0.80;100.00;103062.44;5034707;28;20044;-79
2022/01/21 00:55:16;;;;;;;45.33;4.55;;;;;;;0.73;100.00;103057.97;5044708;28;20040;-80
2022/01/21 00:57:42;;;;;;;54.33;4.95;;;;;;;0.70;100.00;103063.38;5043153;28;20028;-79
2022/01/21 01:00:10;;;;;;;51.53;6.38;;;;;;;0.65;100.00;103062.50;5043633;28;20030;-79
2022/01/21 01:02:37;;;;;;;42.13;5.65;;;;;;;0.51;100.00;103058.03;5025467;28;20392;-79
2022/01/21 01:05:03;;;;;;;34.50;5.75;;;;;;;0.49;100.00;103057.13;5032891;28;20057;-79
2022/01/21 01:07:29;;;;;;;57.50;5.45;;;;;;;0.43;100.00;103057.13;5032823;28;20052;-79
2022/01/21 01:09:56;;;;;;;50.03;5.32;;;;;;;0.37;100.00;103054.44;5024470;28;20022;-79
2022/01/21 01:12:40;;;;;;;61.50;5.97;;;;;;;0.35;100.00;103053.56;5027097;28;20061;-80
2022/01/21 01:20:35;;;;;;;40.33;6.10;;;;;;;0.20;100.00;103053.53;5076025;28;20414;-80
2022/01/21 01:23:48;;;;;;;60.28;6.00;;;;;;;0.19;100.00;103041.88;5049450;28;20037;-79
2022/01/21 01:28:36;;;;;;;58.90;6.18;;;;;;;0.23;100.00;103034.69;5031290;28;20040;-80
2022/01/21 01:31:02;;;;;;;48.38;5.00;;;;;;;0.17;100.00;103025.72;5031261;28;20064;-80
2022/01/21 01:33:35;;;;;;;73.28;6.63;;;;;;;0.15;100.00;103032.03;5034385;28;20117;-79
2022/01/21 01:36:01;;;;;;;45.85;5.70;;;;;;;0.20;100.00;103037.38;5008518;28;20116;-79
2022/01/21 01:41:09;;;;;;;47.40;4.90;;;;;;;0.20;100.00;103037.38;5043685;28;20029;-79
2022/01/21 01:51:47;;;;;;;59.97;5.68;;;;;;;0.21;100.00;103047.28;5042626;28;20045;-79
2022/01/21 01:54:15;;;;;;;56.15;4.80;;;;;;;0.22;100.00;103046.38;5038052;28;20037;-79
2022/01/21 01:56:46;;;;;;;47.22;5.72;;;;;;;0.23;100.00;103042.78;5043806;28;20021;-79
2022/01/21 01:59:12;;;;;;;62.08;5.05;;;;;;;0.24;100.00;103041.88;5025528;28;20338;-79
2022/01/21 02:01:38;;;;;;;53.20;5.55;;;;;;;0.25;100.00;103039.19;5041395;28;20022;-79
2022/01/21 02:04:04;;;;;;;76.90;7.65;;;;;;;0.26;100.00;103030.19;5034084;28;20086;-79
2022/01/21 02:06:30;;;;;;;33.47;4.30;;;;;;;0.13;100.00;103025.72;5043863;28;20056;-80
2022/01/21 02:08:56;;;;;;;60.15;6.15;;;;;;;0.17;100.00;103025.72;5037704;28;20453;-79
2022/01/21 02:11:22;;;;;;;48.85;5.40;;;;;;;0.13;100.00;103025.72;5044504;28;20108;-80
2022/01/21 02:13:55;;;;;;;42.42;4.75;;;;;;;0.07;100.00;103032.00;5030027;28;20093;-80
2022/01/21 02:21:43;;;;;;;34.78;4.22;;;;;;;0.06;100.00;103054.44;5051659;28;20588;-79
2022/01/21 02:24:17;;;;;;;48.35;4.60;;;;;;;0.10;100.00;103045.47;5029837;28;20032;-79
2022/01/21 02:26:44;;;;;;;82.65;7.32;;;;;;;0.09;100.00;103049.06;5028879;28;20469;-79
2022/01/21 02:29:11;;;;;;;57.30;5.35;;;;;;;0.01;100.00;103041.88;5038158;28;20117;-80
2022/01/21 02:31:38;;;;;;;56.15;6.07;;;;;;;0.09;100.00;103053.56;5027278;28;20034;-79
2022/01/21 02:34:06;;;;;;;51.35;4.45;;;;;;;0.07;100.00;103042.78;5037132;28;20374;-80
2022/01/21 02:36:32;;;;;;;32.35;4.60;;;;;;;0.06;100.00;103038.28;5027979;28;20470;-79
2022/01/21 02:38:58;;;;;;;31.42;5.13;;;;;;;0.04;100.00;103036.50;5047946;28;20057;-80
2022/01/21 02:41:25;;;;;;;57.13;4.75;;;;;;;0.02;100.00;103040.97;5049105;28;20038;-79
2022/01/21 02:43:51;;;;;;;57.58;4.22;;;;;;;-0.16;100.00;102998.78;5047154;28;20048;-80
2022/01/21 02:46:19;;;;;;;33.00;4.95;;;;;;;-0.10;100.00;103031.09;5029046;28;20045;-80
2022/01/21 02:48:44;;;;;;;49.10;5.40;;;;;;;-0.13;100.00;103034.72;5030739;28;20080;-80
2022/01/21 02:51:12;;;;;;;62.13;5.20;;;;;;;-0.08;100.00;103045.44;5047757;28;20034;-80
2022/01/21 02:56:13;;;;;;;40.47;4.50;;;;;;;-0.20;100.00;103035.56;5054483;28;20120;-79
2022/01/21 02:58:39;;;;;;;37.63;4.05;;;;;;;-0.15;100.00;103052.63;5011365;28;20117;-79
2022/01/21 03:01:06;;;;;;;41.38;4.00;;;;;;;-0.20;100.00;103046.34;5045095;28;20041;-79
2022/01/21 03:03:33;;;;;;;45.22;4.43;;;;;;;-0.10;100.00;103047.25;5045243;28;20111;-79
2022/01/21 03:06:00;;;;;;;49.90;5.45;;;;;;;-0.12;100.00;103054.44;5046939;28;20168;-80
2022/01/21 03:08:26;;;;;;;42.17;4.43;;;;;;;-0.16;100.00;103058.94;5041665;28;20034;-79
2022/01/21 03:10:52;;;;;;;39.90;3.78;;;;;;;-0.16;100.00;103050.84;5048752;28;20032;-79
2022/01/21 03:13:18;;;;;;;34.22;4.38;;;;;;;-0.21;100.00;103049.94;5045847;28;20088;-79
2022/01/21 03:15:43;;;;;;;65.78;5.03;;;;;;;-0.21;100.00;103061.59;5042297;28;20042;-80
2022/01/21 03:18:09;;;;;;;40.75;4.75;;;;;;;-0.15;100.00;103067.91;5034988;28;20553;-80
2022/01/21 03:20:34;;;;;;;37.78;4.20;;;;;;;-0.23;100.00;103058.03;5044229;28;20124;-81
2022/01/21 03:23:01;;;;;;;50.50;4.57;;;;;;;-0.18;100.00;103058.03;5043850;28;20035;-81
2022/01/21 03:25:27;;;;;;;25.23;3.60;;;;;;;-0.19;100.00;103059.81;5037743;28;20037;-79
2022/01/21 03:27:53;;;;;;;45.08;4.63;;;;;;;-0.17;100.00;103064.31;5041654;28;20046;-79
2022/01/21 03:30:18;;;;;;;48.40;3.90;;;;;;;-0.12;100.00;103067.91;5050362;28;20044;-80
2022/01/21 03:32:43;;;;;;;34.08;3.53;;;;;;;-0.17;100.00;103062.50;5038090;28;20048;-81
2022/01/21 03:35:10;;;;;;;39.38;4.47;;;;;;;-0.12;100.00;103068.78;5034334;28;20042;-79
2022/01/21 03:37:36;;;;;;;30.92;4.28;;;;;;;-0.17;100.00;103067.00;5049855;28;20029;-79
2022/01/21 03:40:03;;;;;;;42.75;4.72;;;;;;;-0.20;100.00;103066.09;5042773;28;20108;-79
2022/01/21 03:42:28;;;;;;;34.95;4.53;;;;;;;-0.24;100.00;103066.97;5048741;28;20025;-79
2022/01/21 03:44:54;;;;;;;36.60;4.38;;;;;;;-0.24;100.00;103066.97;5027643;28;20030;-79
2022/01/21 03:47:19;;;;;;;40.15;4.13;;;;;;;-0.27;100.00;103069.66;5038105;28;20039;-79
2022/01/21 03:49:53;;;;;;;40.55;4.47;;;;;;;-0.25;100.00;103065.16;5062479;28;20029;-79
2022/01/21 03:52:18;;;;;;;44.28;3.80;;;;;;;-0.26;100.00;103066.09;5040561;28;20112;-79
2022/01/21 03:54:44;;;;;;;48.63;4.47;;;;;;;-0.33;100.00;103053.50;5021766;28;20029;-79
2022/01/21 03:57:09;;;;;;;38.03;3.78;;;;;;;-0.32;100.00;103068.75;5028692;28;20038;-79
2022/01/21 03:59:35;;;;;;;36.30;5.22;;;;;;;-0.30;100.00;103069.66;5047383;28;20034;-80
2022/01/21 04:02:01;;;;;;;47.25;5.03;;;;;;;-0.34;100.00;103065.19;5042944;28;20041;-80
2022/01/21 04:04:26;;;;;;;33.17;4.07;;;;;;;-0.27;100.00;103080.44;5011393;28;20079;-79
2022/01/21 04:06:52;;;;;;;35.85;5.72;;;;;;;-0.30;100.00;103072.34;5035428;28;20112;-80
2022/01/21 04:09:18;;;;;;;41.17;4.25;;;;;;;-0.33;100.00;103066.94;5037279;28;20018;-81
2022/01/21 04:11:43;;;;;;;56.67;6.28;;;;;;;-0.23;100.00;103070.56;5036145;28;20163;-80
2022/01/21 04:14:08;;;;;;;65.38;5.88;;;;;;;-0.24;100.00;103068.78;5046607;28;20034;-79
2022/01/21 04:16:34;;;;;;;38.22;4.85;;;;;;;-0.31;100.00;103061.56;5045202;28;20041;-79
2022/01/21 04:18:59;;;;;;;47.47;4.13;;;;;;;-0.32;100.00;103057.09;5046196;28;20029;-80
2022/01/21 04:21:25;;;;;;;52.30;4.15;;;;;;;-0.33;100.00;103063.38;5041736;28;20036;-80
2022/01/21 04:23:50;;;;;;;32.63;3.53;;;;;;;-0.31;100.00;103054.41;5044508;28;20116;-79
2022/01/21 04:26:16;;;;;;;36.67;3.33;;;;;;;-0.34;100.00;103043.66;5046770;28;20056;-80
2022/01/21 04:28:41;;;;;;;26.30;4.03;;;;;;;-0.31;100.00;103042.72;5044508;28;20057;-80
2022/01/21 04:31:07;;;;;;;46.17;5.35;;;;;;;-0.35;100.00;103047.22;5013466;28;20460;-80
2022/01/21 04:33:32;;;;;;;39.50;4.15;;;;;;;-0.34;100.00;103045.41;5043646;28;20057;-79
2022/01/21 04:35:58;;;;;;;36.65;4.15;;;;;;;-0.39;100.00;103053.50;5061947;28;20462;-80
2022/01/21 04:38:24;;;;;;;35.10;3.67;;;;;;;-0.40;100.00;103049.91;5028797;28;20087;-79
2022/01/21 04:41:53;;;;;;;37.78;4.75;;;;;;;-0.33;100.00;103058.00;5046574;28;20152;-80
2022/01/21 04:49:04;;;;;;;47.53;4.65;;;;;;;-0.33;100.00;103047.22;5030050;28;20083;-80
2022/01/21 04:51:37;;;;;;;31.38;3.08;;;;;;;-0.35;100.00;103049.91;5046913;28;20477;-80
2022/01/21 04:54:03;;;;;;;32.42;4.60;;;;;;;-0.42;100.00;103046.31;5042156;28;20029;-80
2022/01/21 04:56:29;;;;;;;255.98;147.65;;;;;;;-0.42;100.00;103053.50;5040475;28;20034;-80
2022/01/21 04:58:54;;;;;;;42.33;7.88;;;;;;;-0.40;100.00;103054.38;5028681;28;20400;-79
2022/01/21 05:01:20;;;;;;;52.40;4.22;;;;;;;-0.33;100.00;103058.00;5045935;28;20052;-81
2022/01/21 05:03:46;;;;;;;25.88;3.65;;;;;;;-0.43;100.00;103055.25;5045309;28;20104;-79
2022/01/21 05:06:12;;;;;;;41.55;4.15;;;;;;;-0.42;100.00;103050.81;5059726;28;20209;-80
2022/01/21 05:08:56;;;;;;;46.75;4.22;;;;;;;-0.46;100.00;103040.91;5045083;28;20041;-80
2022/01/21 05:11:21;;;;;;;32.90;3.45;;;;;;;-0.45;100.00;103040.91;5044059;28;20025;-80
2022/01/21 05:13:59;;;;;;;51.35;4.35;;;;;;;-0.44;100.00;103053.50;5043843;28;20037;-80
2022/01/21 05:18:57;;;;;;;55.55;4.50;;;;;;;-0.46;100.00;103057.97;5038440;28;20465;-79
2022/01/21 05:21:23;;;;;;;29.88;3.75;;;;;;;-0.51;100.00;103058.84;5028353;28;20056;-80
2022/01/21 05:23:48;;;;;;;34.22;4.63;;;;;;;-0.56;100.00;103048.97;5044955;28;20045;-80
2022/01/21 05:26:13;;;;;;;38.55;4.32;;;;;;;-0.45;100.00;103051.69;5030663;28;20196;-80
2022/01/21 05:28:39;;;;;;;55.65;4.40;;;;;;;-0.47;100.00;103044.53;5024218;28;20034;-79
2022/01/21 05:31:05;;;;;;;27.80;3.90;;;;;;;-0.45;100.00;103057.06;5021445;28;20030;-79
2022/01/21 05:33:31;;;;;;;54.13;6.32;;;;;;;-0.44;100.00;103055.28;5045720;28;20405;-80
2022/01/21 05:35:56;;;;;;;33.70;4.28;;;;;;;-0.46;100.00;103060.66;5021422;28;20045;-79
2022/01/21 05:38:22;;;;;;;34.72;4.97;;;;;;;-0.40;100.00;103070.53;5043907;28;20109;-80
2022/01/21 05:40:50;;;;;;;37.50;3.70;;;;;;;-0.61;100.00;103049.84;5037199;28;20048;-79
2022/01/21 05:43:15;;;;;;;49.03;4.47;;;;;;;-0.46;100.00;103070.50;5037518;28;20116;-79
2022/01/21 05:48:25;;;;;;;25.00;4.20;;;;;;;-0.46;100.00;103057.97;5046289;28;20042;-78
2022/01/21 05:50:50;;;;;;;31.38;3.92;;;;;;;-0.59;100.00;103046.28;5046691;28;20443;-78
2022/01/21 05:53:16;;;;;;;48.08;5.35;;;;;;;-0.49;100.00;103063.34;5048359;28;20038;-78
2022/01/21 05:55:43;;;;;;;35.47;4.40;;;;;;;-0.48;100.00;103059.75;5046303;28;20033;-77
2022/01/21 05:58:10;;;;;;;47.55;4.90;;;;;;;-0.53;100.00;103063.31;5030924;28;20094;-78
2022/01/21 06:00:36;;;;;;;36.47;3.30;;;;;;;-0.52;100.00;103055.25;5029560;28;20038;-77
2022/01/21 06:03:03;;;;;;;28.85;3.90;;;;;;;-0.49;100.00;103063.34;5046144;28;20041;-77
2022/01/21 06:05:32;;;;;;;44.50;4.80;;;;;;;-0.49;100.00;103073.19;5025564;28;20041;-78
2022/01/21 06:08:02;;;;;;;30.00;4.68;;;;;;;-0.49;100.00;103071.41;5038846;28;20033;-79
2022/01/21 06:10:28;;;;;;;24.50;4.10;;;;;;;-0.48;100.00;103066.94;5047910;28;20095;-77
2022/01/21 06:12:54;;;;;;;51.45;5.30;;;;;;;-0.43;100.00;103081.28;5031050;28;20041;-78
2022/01/21 06:15:19;;;;;;;32.45;4.55;;;;;;;-0.52;100.00;103076.78;5046904;28;20053;-78
2022/01/21 06:17:45;;;;;;;46.70;4.72;;;;;;;-0.49;100.00;103078.56;5046767;28;20056;-78
2022/01/21 06:20:11;;;;;;;37.58;5.32;;;;;;;-0.45;100.00;103086.66;5028586;28;20025;-78
2022/01/21 06:22:37;;;;;;;39.33;4.88;;;;;;;-0.42;100.00;103086.69;5040124;28;20053;-79
2022/01/21 06:25:03;;;;;;;48.08;5.20;;;;;;;-0.44;100.00;103079.50;5039209;28;20048;-78
2022/01/21 06:27:31;;;;;;;23.38;4.03;;;;;;;-0.41;100.00;103091.19;5041597;28;20040;-78
2022/01/21 06:29:57;;;;;;;42.58;4.47;;;;;;;-0.38;100.00;103101.03;5045219;28;20212;-78
2022/01/21 06:32:22;;;;;;;24.00;4.90;;;;;;;-0.41;100.00;103096.56;5047382;28;20057;-79
2022/01/21 06:34:48;;;;;;;24.08;3.88;;;;;;;-0.49;100.00;103087.56;5029163;28;20045;-79
2022/01/21 06:37:13;;;;;;;23.58;3.92;;;;;;;-0.43;100.00;103094.75;5038534;28;20191;-78
2022/01/21 06:39:39;;;;;;;47.03;4.78;;;;;;;-0.44;100.00;103101.94;5045857;28;20037;-79
2022/01/21 06:42:05;;;;;;;28.85;4.45;;;;;;;-0.49;100.00;103090.25;5047512;28;20165;-78
2022/01/21 06:44:30;;;;;;;53.28;6.35;;;;;;;-0.43;100.00;103110.88;5047374;28;20041;-78
2022/01/21 06:46:55;;;;;;;31.35;4.65;;;;;;;-0.52;100.00;103105.50;5046010;28;20040;-78
2022/01/21 06:49:21;;;;;;;45.13;4.88;;;;;;;-0.50;100.00;103118.03;5048188;28;20063;-78
2022/01/21 06:51:47;;;;;;;25.73;4.85;;;;;;;-0.59;100.00;103115.31;5054643;28;20034;-78
2022/01/21 06:54:13;;;;;;;54.38;4.95;;;;;;;-0.51;100.00;103123.41;5020543;28;20443;-79
2022/01/21 06:56:38;;;;;;;32.25;6.18;;;;;;;-0.46;100.00;103122.56;5048277;28;20026;-79
2022/01/21 06:59:04;;;;;;;37.90;5.13;;;;;;;-0.50;100.00;103131.50;5034981;28;20097;-79
2022/01/21 07:01:30;;;;;;;43.08;5.28;;;;;;;-0.51;100.00;103116.22;5047845;28;20041;-78
2022/01/21 07:03:55;;;;;;;22.63;5.10;;;;;;;-0.49;100.00;103117.16;5046605;28;20033;-79
2022/01/21 07:06:21;;;;;;;45.38;6.07;;;;;;;-0.42;100.00;103124.34;5027525;28;20065;-78
2022/01/21 07:08:47;;;;;;;36.10;5.95;;;;;;;-0.54;100.00;103112.63;5029969;28;20022;-78
2022/01/21 07:11:13;;;;;;;35.65;5.63;;;;;;;-0.44;100.00;103125.25;5047305;28;20036;-78
2022/01/21 07:13:39;;;;;;;44.08;5.82;;;;;;;-0.39;100.00;103126.16;5039431;28;20385;-79
2022/01/21 07:16:04;;;;;;;29.75;5.07;;;;;;;-0.37;100.00;103133.34;5040887;28;20053;-79
2022/01/21 07:18:30;;;;;;;39.75;4.90;;;;;;;-0.37;100.00;103130.66;5046812;28;20034;-78
2022/01/21 07:20:56;;;;;;;40.05;5.57;;;;;;;-0.45;100.00;103129.72;5043697;28;20022;-78
2022/01/21 07:23:21;;;;;;;31.63;5.18;;;;;;;-0.42;100.00;103132.44;5045988;28;20650;-77
2022/01/21 07:25:47;;;;;;;52.88;8.65;;;;;;;-0.38;100.00;103136.94;5045701;28;20037;-80
2022/01/21 07:28:15;;;;;;;63.40;10.13;;;;;;;-0.33;100.00;103144.13;5048012;28;20055;-77
2022/01/21 07:30:41;;;;;;;36.72;6.93;;;;;;;-0.23;100.00;103143.25;5025528;28;20033;-77
2022/01/21 07:33:06;;;;;;;29.23;5.93;;;;;;;-0.15;100.00;103154.03;5025364;28;20036;-77
2022/01/21 07:35:32;;;;;;;43.60;6.97;;;;;;;-0.15;100.00;103148.66;5045227;28;20127;-78
2022/01/21 07:37:59;;;;;;;41.22;7.10;;;;;;;-0.13;100.00;103138.78;5043738;28;20103;-78
2022/01/21 07:40:25;;;;;;;40.40;7.63;;;;;;;0.00;100.00;103159.50;5046513;28;20041;-78
2022/01/21 07:42:50;;;;;;;42.45;7.95;;;;;;;0.09;100.00;103148.72;5017949;28;20038;-78
2022/01/21 07:45:16;;;;;;;31.42;7.20;;;;;;;0.15;100.00;103148.72;5010172;28;20038;-78
2022/01/21 07:47:41;;;;;;;52.10;8.80;;;;;;;0.21;100.00;103153.22;5026229;28;20046;-79
2022/01/21 07:50:07;;;;;;;47.58;10.38;;;;;;;0.33;100.00;103161.31;5007757;28;20081;-78
2022/01/21 07:52:33;;;;;;;60.92;9.73;;;;;;;0.38;100.00;103164.03;5022576;28;20034;-78
2022/01/21 07:54:58;;;;;;;48.45;10.32;;;;;;;0.48;100.00;103164.94;5012096;28;20026;-77
2022/01/21 07:57:24;;;;;;;51.70;9.32;;;;;;;0.50;100.00;103158.63;5008015;28;20537;-77
2022/01/21 07:59:49;;;;;;;63.03;9.27;;;;;;;0.60;100.00;103159.53;5015299;28;20353;-77
2022/01/21 08:02:15;;;;;;;58.70;11.77;;;;;;;0.54;100.00;103149.66;5026493;28;20084;-78
2022/01/21 08:04:40;;;;;;;53.25;12.40;;;;;;;0.58;100.00;103155.06;5012869;28;20478;-79
2022/01/21 08:07:09;;;;;;;45.97;10.75;;;;;;;0.66;100.00;103142.47;5000400;28;20505;-77
2022/01/21 08:09:34;;;;;;;54.47;11.63;;;;;;;0.73;100.00;103147.84;5022047;28;20049;-78
2022/01/21 08:11:59;;;;;;;60.20;11.63;;;;;;;0.64;100.00;103131.69;5006113;28;20062;-78
2022/01/21 08:14:25;;;;;;;45.95;11.13;;;;;;;0.52;100.00;103120.91;5012971;28;20061;-78
2022/01/21 08:16:53;;;;;;;71.78;13.68;;;;;;;0.64;100.00;103138.84;5016047;28;20045;-78
2022/01/21 08:19:18;;;;;;;55.40;12.02;;;;;;;0.66;100.00;103123.59;5006236;28;20139;-78
2022/01/21 08:21:44;;;;;;;46.28;11.30;;;;;;;0.71;100.00;103135.28;5007018;28;20034;-78
2022/01/21 08:24:09;;;;;;;52.45;11.50;;;;;;;0.80;100.00;103128.97;5044310;28;20030;-78
2022/01/21 08:26:36;;;;;;;50.65;12.45;;;;;;;0.78;100.00;103107.41;5006474;28;20046;-78
2022/01/21 08:29:02;;;;;;;46.00;11.45;;;;;;;0.89;100.00;103119.06;5011424;28;20058;-77
2022/01/21 08:31:28;;;;;;;54.70;11.82;;;;;;;0.88;100.00;103128.03;5004677;28;20030;-77
2022/01/21 08:33:54;;;;;;;43.53;11.65;;;;;;;0.97;100.00;103126.22;5001973;28;20052;-77
2022/01/21 08:36:22;;;;;;;59.38;13.27;;;;;;;0.99;100.00;103136.13;4998621;28;20061;-77
2022/01/21 08:38:48;;;;;;;58.30;13.55;;;;;;;1.00;100.00;103137.00;5002853;28;20046;-79
2022/01/21 08:41:14;;;;;;;47.35;14.48;;;;;;;1.04;100.00;103136.13;5032733;28;20072;-77
2022/01/21 08:43:40;;;;;;;65.53;14.77;;;;;;;1.08;100.00;103143.28;4998662;28;20537;-77
2022/01/21 08:46:06;;;;;;;62.20;14.07;;;;;;;1.09;100.00;103147.78;5029831;28;20112;-77
2022/01/21 08:48:32;;;;;;;66.25;14.55;;;;;;;1.15;100.00;103146.88;4996889;28;20096;-77
2022/01/21 08:51:00;;;;;;;64.63;15.88;;;;;;;1.16;100.00;103141.47;5017268;28;20096;-77
2022/01/21 08:53:38;;;;;;;55.08;14.23;;;;;;;1.19;100.00;103133.38;5032473;28;20069;-77
2022/01/21 08:56:17;;;;;;;42.80;13.68;;;;;;;1.29;100.00;103145.91;4977096;28;20042;-78
2022/01/21 08:58:44;;;;;;;55.22;15.38;;;;;;;1.27;100.00;103147.72;4995365;28;20120;-77
2022/01/21 09:01:11;;;;;;;65.53;15.18;;;;;;;1.39;100.00;103154.00;5005090;28;20031;-77
2022/01/21 09:03:38;;;;;;;49.40;14.20;;;;;;;1.40;100.00;103153.09;5007337;28;20348;-77
2022/01/21 09:06:04;;;;;;;62.30;14.50;;;;;;;1.44;100.00;103155.78;4985035;28;20077;-77
2022/01/21 09:08:30;;;;;;;52.22;14.80;;;;;;;1.43;100.00;103145.00;5002641;28;20031;-77
2022/01/21 09:10:59;;;;;;;48.55;13.93;;;;;;;1.44;100.00;103133.28;4987063;28;20041;-78
2022/01/21 09:13:27;;;;;;;55.35;14.35;;;;;;;1.42;100.00;103127.88;4996633;28;20046;-78
2022/01/21 09:15:58;;;;;;;51.05;13.68;;;;;;;1.43;100.00;103124.28;4997143;28;20033;-77
2022/01/21 09:18:25;;;;;;;75.18;16.75;;;;;;;1.41;100.00;103122.50;5025475;28;20030;-77
2022/01/21 09:20:52;;;;;;;55.65;14.20;;;;;;;1.43;100.00;103123.41;5040653;28;20036;-78
2022/01/21 09:23:17;;;;;;;73.82;17.85;;;;;;;1.54;100.00;103132.34;5014612;28;20073;-78
2022/01/21 09:25:43;;;;;;;82.07;16.85;;;;;;;1.62;100.00;103108.91;5020533;28;20057;-78
2022/01/21 09:28:08;;;;;;;52.15;15.55;;;;;;;1.85;100.00;103129.47;5033322;28;20050;-78
2022/01/21 09:30:34;;;;;;;71.90;15.90;;;;;;;1.81;100.00;103142.09;5003538;28;20049;-78
2022/01/21 09:33:00;;;;;;;73.65;15.10;;;;;;;1.99;100.00;103153.72;5021452;28;20035;-78
2022/01/21 09:35:26;;;;;;;48.53;14.20;;;;;;;2.09;100.00;103144.63;5023522;28;20060;-78
2022/01/21 09:37:52;;;;;;;47.10;13.93;;;;;;;2.14;100.00;103150.03;5003328;28;20034;-78
2022/01/21 09:40:17;;;;;;;74.38;15.25;;;;;;;2.18;100.00;103143.66;5005173;28;20105;-79
2022/01/21 09:42:44;;;;;;;47.72;13.73;;;;;;;2.23;100.00;103147.28;5003201;28;20080;-78
2022/01/21 09:45:13;;;;;;;55.22;13.05;;;;;;;2.36;100.00;103157.06;5020646;28;20045;-78
2022/01/21 09:47:50;;;;;;;38.05;12.13;;;;;;;2.53;100.00;103161.44;5022176;28;20037;-79
2022/01/21 09:50:20;;;;;;;52.35;12.52;;;;;;;2.68;100.00;103166.72;5005447;28;20026;-78
2022/01/21 09:52:46;;;;;;;58.20;11.32;;;;;;;2.93;100.00;103169.19;5012195;28;20588;-78
2022/01/21 09:55:14;;;;;;;42.80;10.57;;;;;;;2.99;100.00;103174.56;5003637;28;20041;-79
2022/01/21 09:57:41;;;;;;;44.45;11.00;;;;;;;3.23;100.00;103169.78;5004534;28;20042;-79
2022/01/21 10:00:08;;;;;;;28.95;9.48;;;;;;;3.29;100.00;103165.19;5030833;28;20078;-79
2022/01/21 10:02:37;;;;;;;41.28;9.70;;;;;;;3.27;100.00;103169.75;4999611;28;21663;-79
2022/01/21 10:05:04;;;;;;;34.53;10.65;;;;;;;3.18;100.00;103188.81;5010843;28;20034;-79
2022/01/21 10:07:30;;;;;;;40.35;8.57;;;;;;;3.07;100.00;103172.66;5019176;28;20044;-79
2022/01/21 10:09:57;;;;;;;37.55;9.32;;;;;;;3.13;100.00;103183.44;4981864;28;20065;-80
2022/01/21 10:12:24;;;;;;;28.70;8.02;;;;;;;3.26;100.00;103196.84;4986286;28;20034;-79
2022/01/21 10:14:49;;;;;;;42.85;8.43;;;;;;;3.17;100.00;103184.31;4998559;28;20053;-80
2022/01/21 10:17:15;;;;;;;24.55;7.25;;;;;;;3.04;100.00;103182.63;4997664;28;20049;-79
2022/01/21 10:19:41;;;;;;;31.40;7.82;;;;;;;2.86;100.00;103173.78;4992230;28;20046;-80
2022/01/21 10:22:11;;;;;;;41.72;7.40;;;;;;;3.03;100.00;103187.13;4991616;28;20374;-79
2022/01/21 10:24:52;;;;;;;26.10;7.82;;;;;;;3.03;100.00;103151.94;5023159;28;20090;-79
2022/01/21 10:27:23;;;;;;;43.50;8.38;;;;;;;3.50;100.00;103187.53;4998442;28;20092;-80
2022/01/21 10:29:49;;;;;;;31.17;7.28;;;;;;;3.49;100.00;103188.44;5000580;28;20049;-80
2022/01/21 10:32:14;;;;;;;35.97;7.75;;;;;;;3.72;100.00;103195.41;5008391;28;20037;-80
2022/01/21 10:34:42;;;;;;;44.33;7.50;;;;;;;3.85;100.00;103186.19;4989315;28;20398;-79
2022/01/21 10:37:24;;;;;;;40.88;7.45;;;;;;;3.82;100.00;103170.91;5003632;28;20026;-79
2022/01/21 10:40:10;;;;;;;29.30;6.78;;;;;;;4.23;100.00;103182.97;5003961;28;20363;-79
2022/01/21 10:42:37;;;;;;;42.88;6.45;;;;;;;4.31;100.00;103190.06;5001291;28;20030;-79
2022/01/21 10:45:05;;;;;;;34.45;6.63;;;;;;;4.34;100.00;103184.63;5015489;28;20125;-78
2022/01/21 10:47:37;;;;;;;33.83;7.00;;;;;;;4.34;100.00;103179.19;5019432;28;20037;-79
2022/01/21 10:50:11;;;;;;;32.50;7.27;;;;;;;4.53;100.00;103188.84;5020245;28;20034;-78
2022/01/21 10:52:40;;;;;;;26.65;6.07;;;;;;;4.73;100.00;103184.91;5003229;28;20085;-78
2022/01/21 10:55:35;;;;;;;26.75;5.72;;;;;;;4.78;100.00;103178.47;5036094;28;20038;-78
2022/01/21 10:58:04;;;;;;;35.75;7.32;;;;;;;4.76;100.00;103180.31;5016689;28;20041;-78
2022/01/21 11:00:29;;;;;;;39.10;5.88;;;;;;;4.97;100.00;103170.00;5004536;28;20037;-80
2022/01/21 11:02:55;;;;;;;23.67;7.05;;;;;;;5.17;100.00;103177.78;5013993;28;20026;-80
2022/01/21 11:05:20;;;;;;;31.67;6.40;;;;;;;5.13;100.00;103171.53;4998183;28;20367;-79
2022/01/21 11:08:02;;;;;;;49.78;6.38;;;;;;;5.26;100.00;103171.28;5005220;28;20068;-80
2022/01/21 11:10:37;;;;;;;33.47;5.97;;;;;;;5.61;100.00;103167.84;5004819;28;20030;-80
2022/01/21 11:13:23;;;;;;;52.78;7.60;;;;;;;5.79;100.00;103143.91;5020296;28;20124;-80
2022/01/21 11:15:56;;;;;;;36.95;6.00;;;;;;;5.96;100.00;103140.81;5001879;28;20073;-80
2022/01/21 11:18:23;;;;;;;23.45;5.90;;;;;;;6.11;100.00;103137.78;5033670;28;20030;-79
2022/01/21 11:20:57;;;;;;;36.17;5.15;;;;;;;6.31;100.00;103137.28;5010261;28;20061;-80
2022/01/21 11:23:27;;;;;;;31.90;4.28;;;;;;;6.35;100.00;103125.41;5021236;28;20144;-79
2022/01/21 11:26:00;;;;;;;24.52;5.25;;;;;;;6.65;100.00;103130.13;5014778;28;20037;-78
2022/01/21 11:28:45;;;;;;;39.35;4.85;;;;;;;6.42;100.00;103129.75;5018575;28;20034;-79
2022/01/21 11:31:13;;;;;;;35.28;4.63;;;;;;;6.29;100.00;103119.22;4979110;28;20046;-80
2022/01/21 11:33:38;;;;;;;39.72;5.60;;;;;;;6.27;100.00;103119.28;4980429;28;20387;-77
2022/01/21 11:36:05;;;;;;;38.50;6.32;;;;;;;6.28;100.00;103115.63;5021526;28;20030;-77
2022/01/21 11:38:35;;;;;;;28.90;3.80;;;;;;;6.26;100.00;103112.03;5011064;28;20049;-77
2022/01/21 11:41:03;;;;;;;25.15;5.47;;;;;;;6.05;100.00;103125.22;5013791;28;20044;-78
2022/01/21 11:43:30;;;;;;;42.72;4.65;;;;;;;5.82;100.00;103127.53;5001937;28;20045;-77
2022/01/21 11:51:01;;;;;;;34.75;4.07;;;;;;;5.32;100.00;103122.25;4994225;28;20061;-81
2022/01/21 11:53:47;;;;;;;38.88;4.38;;;;;;;5.28;100.00;103125.94;5020842;28;20046;-79
2022/01/21 11:56:34;;;;;;;29.58;3.97;;;;;;;5.33;100.00;103115.91;5003755;28;20541;-80
2022/01/21 11:59:10;;;;;;;31.83;3.45;;;;;;;5.33;100.00;103115.91;4988286;28;20042;-79
2022/01/21 12:01:48;;;;;;;19.02;2.78;;;;;;;5.39;100.00;103117.59;5004388;28;20057;-79
2022/01/21 12:04:38;;;;;;;36.38;5.22;;;;;;;5.41;100.00;103099.44;5004310;28;20026;-79
2022/01/21 12:07:24;;;;;;;27.35;3.58;;;;;;;5.45;100.00;103104.78;5007166;28;20051;-79
2022/01/21 12:09:58;;;;;;;33.72;2.97;;;;;;;5.46;100.00;103094.78;4994577;28;20578;-79